Time;durP1;ratioP1;P1;durP2;ratioP2;P2;SDS_P1;SDS_P2;PMS_P1;PMS_P2;Temp;Humidity;BMP_temperature;BMP_pressure;BME280_temperature;BME280_humidity;BME280_pressure;Samples;Min_cycle;Max_cycle;Signal;HPM_P1;HPM_P2
2023/09/02 00:02:15;;;;;;;3.87;2.10;;;;;;;13.25;100.00;101830.84;4936324;29;20203;-76
2023/09/02 00:04:40;;;;;;;6.70;2.63;;;;;;;13.26;100.00;101821.72;4939138;29;20218;-76
2023/09/02 00:07:06;;;;;;;3.40;2.10;;;;;;;13.93;100.00;101930.16;4941733;29;20199;-77
2023/09/02 00:09:31;;;;;;;3.83;2.40;;;;;;;13.66;100.00;101896.72;4946472;29;20187;-77
2023/09/02 00:11:57;;;;;;;4.57;2.40;;;;;;;12.91;100.00;101799.16;4939939;29;20258;-76
2023/09/02 00:14:22;;;;;;;3.50;2.00;;;;;;;13.63;100.00;101945.63;4938497;29;20204;-76
2023/09/02 00:16:48;;;;;;;4.10;2.33;;;;;;;13.70;100.00;101949.22;4938420;29;20238;-76
2023/09/02 00:19:13;;;;;;;5.03;2.23;;;;;;;13.67;100.00;101953.13;4937412;28;20211;-76
2023/09/02 00:21:39;;;;;;;5.43;2.37;;;;;;;12.96;100.00;101834.44;4939131;29;20212;-77
2023/09/02 00:24:05;;;;;;;3.70;2.60;;;;;;;13.37;100.00;101901.22;4940479;29;20222;-76
2023/09/02 00:26:31;;;;;;;5.10;2.63;;;;;;;12.87;100.00;101844.47;4941453;29;20443;-76
2023/09/02 00:28:58;;;;;;;3.83;2.47;;;;;;;13.60;100.00;101954.09;4938081;28;20230;-76
2023/09/02 00:31:23;;;;;;;4.30;2.90;;;;;;;13.46;100.00;101953.13;4944804;29;20474;-76
2023/09/02 00:33:49;;;;;;;4.07;2.87;;;;;;;13.39;100.00;101928.78;4941768;29;20462;-76
2023/09/02 00:36:14;;;;;;;5.20;2.40;;;;;;;13.57;100.00;101942.69;4944444;29;20784;-76
2023/09/02 00:38:40;;;;;;;3.60;2.30;;;;;;;13.40;100.00;101946.63;4939856;28;20187;-76
2023/09/02 00:41:10;;;;;;;5.53;2.27;;;;;;;13.40;100.00;101954.72;4943047;29;20755;-76
2023/09/02 00:43:36;;;;;;;4.23;2.30;;;;;;;12.78;100.00;101859.06;4947677;29;20438;-75
2023/09/02 00:46:02;;;;;;;5.00;2.70;;;;;;;13.47;100.00;101955.63;4942098;29;20514;-75
2023/09/02 00:48:28;;;;;;;5.70;2.90;;;;;;;12.77;100.00;101849.31;4941194;28;20486;-76
2023/09/02 00:50:53;;;;;;;3.57;2.40;;;;;;;13.38;100.00;101953.25;4942282;28;20483;-77
2023/09/02 00:53:20;;;;;;;4.80;2.70;;;;;;;12.80;100.00;101843.56;4947445;29;20739;-76
2023/09/02 00:55:47;;;;;;;5.37;3.07;;;;;;;13.37;100.00;101957.81;4946515;28;20972;-76
2023/09/02 00:58:12;;;;;;;4.90;2.83;;;;;;;12.95;100.00;101900.06;4937532;29;20443;-77
2023/09/02 01:00:38;;;;;;;5.47;2.70;;;;;;;12.86;100.00;101911.97;4935466;29;20496;-76
2023/09/02 01:03:04;;;;;;;4.57;3.20;;;;;;;13.19;100.00;101968.97;4939225;29;20719;-75
2023/09/02 01:05:29;;;;;;;5.10;2.90;;;;;;;13.10;100.00;101965.53;4942901;29;20596;-76
2023/09/02 01:07:56;;;;;;;4.70;3.60;;;;;;;13.11;100.00;101974.44;4952481;28;20215;-77
2023/09/02 01:10:23;;;;;;;7.23;3.27;;;;;;;12.45;100.00;101872.09;4936274;28;20195;-77
2023/09/02 01:12:48;;;;;;;5.20;3.60;;;;;;;13.16;100.00;101985.47;4943805;29;20438;-76
2023/09/02 01:15:14;;;;;;;4.73;3.30;;;;;;;12.37;100.00;101875.69;4940460;28;20493;-76
2023/09/02 01:17:39;;;;;;;4.40;3.20;;;;;;;12.98;100.00;101990.44;4940605;28;20755;-76
2023/09/02 01:20:07;;;;;;;4.80;3.30;;;;;;;12.42;100.00;101885.91;4936968;29;20215;-77
2023/09/02 01:23:07;;;;;;;5.13;3.57;;;;;;;13.14;100.00;101992.09;4938860;29;20195;-76
2023/09/02 01:26:08;;;;;;;6.73;2.80;;;;;;;12.63;100.00;101936.31;4937612;28;21733;-77
2023/09/02 01:28:40;;;;;;;4.70;3.30;;;;;;;12.91;100.00;101989.50;4909841;28;20443;-78
2023/09/02 01:31:08;;;;;;;5.13;3.00;;;;;;;12.70;100.00;101980.31;4936454;29;20459;-78
2023/09/02 01:33:36;;;;;;;4.43;2.90;;;;;;;12.86;100.00;101981.97;4938919;28;20848;-77
2023/09/02 01:36:03;;;;;;;6.43;3.40;;;;;;;12.73;100.00;101977.25;4938910;29;20442;-77
2023/09/02 01:38:31;;;;;;;4.83;3.00;;;;;;;12.74;100.00;101968.16;4937652;29;20811;-77
2023/09/02 01:40:59;;;;;;;5.50;2.90;;;;;;;12.91;100.00;102005.66;4941749;28;20482;-77
2023/09/02 01:43:27;;;;;;;6.03;2.60;;;;;;;11.91;100.00;101838.19;4941236;29;20447;-77
2023/09/02 01:45:53;;;;;;;3.73;2.53;;;;;;;12.62;100.00;101961.56;4938775;29;20451;-76
2023/09/02 01:48:19;;;;;;;4.10;2.70;;;;;;;12.92;100.00;102018.94;4939691;29;20497;-77
2023/09/02 01:50:45;;;;;;;4.23;2.63;;;;;;;12.82;100.00;101981.53;4940389;29;20454;-76
2023/09/02 01:53:10;;;;;;;4.73;2.80;;;;;;;12.97;100.00;102010.31;4937357;29;20514;-77
2023/09/02 01:55:36;;;;;;;3.90;2.70;;;;;;;12.59;100.00;101968.16;4955389;28;20194;-77
2023/09/02 01:58:01;;;;;;;4.83;2.80;;;;;;;12.67;100.00;101996.84;4942566;29;21231;-77
2023/09/02 02:00:28;;;;;;;3.90;2.47;;;;;;;12.67;100.00;101996.84;4945118;29;20215;-77
2023/09/02 02:02:54;;;;;;;5.30;2.77;;;;;;;11.86;100.00;101905.13;4941809;28;20218;-76
2023/09/02 02:05:43;;;;;;;5.00;2.80;;;;;;;12.65;100.00;102005.09;4942694;29;20447;-76
2023/09/02 02:08:13;;;;;;;3.83;2.80;;;;;;;12.68;100.00;102020.03;4942016;29;20500;-77
2023/09/02 02:10:41;;;;;;;4.60;3.50;;;;;;;12.32;100.00;101949.91;4937227;29;20852;-77
2023/09/02 02:13:07;;;;;;;5.30;3.30;;;;;;;12.54;100.00;101997.47;4940153;29;20498;-78
2023/09/02 02:15:32;;;;;;;4.40;2.70;;;;;;;12.46;100.00;101997.53;4943456;29;20442;-78
2023/09/02 02:17:58;;;;;;;4.53;2.90;;;;;;;12.33;100.00;101978.50;4942064;29;20229;-77
2023/09/02 02:20:29;;;;;;;4.60;3.20;;;;;;;12.49;100.00;101997.16;4940977;29;20230;-78
2023/09/02 02:22:55;;;;;;;4.80;3.00;;;;;;;12.53;100.00;102003.88;4942508;29;20194;-77
2023/09/02 02:25:20;;;;;;;4.57;3.03;;;;;;;12.33;100.00;101984.72;4939395;28;20442;-77
2023/09/02 02:27:45;;;;;;;5.53;3.40;;;;;;;11.86;100.00;101926.66;4940734;29;20664;-77
2023/09/02 02:30:12;;;;;;;4.67;3.57;;;;;;;12.14;100.00;101977.16;4937841;29;20199;-76
2023/09/02 02:32:37;;;;;;;5.27;3.83;;;;;;;12.44;100.00;102008.50;4939214;29;20836;-77
2023/09/02 02:35:03;;;;;;;4.27;3.43;;;;;;;11.86;100.00;101944.59;4946297;29;20446;-78
2023/09/02 02:37:28;;;;;;;6.03;4.30;;;;;;;12.01;100.00;101953.56;4940423;29;20187;-77
2023/09/02 02:39:54;;;;;;;6.00;4.10;;;;;;;12.26;100.00;101982.94;4942616;29;20200;-77
2023/09/02 02:42:20;;;;;;;4.77;3.53;;;;;;;12.18;100.00;101984.69;4937603;28;20254;-77
2023/09/02 02:44:46;;;;;;;5.10;3.60;;;;;;;12.09;100.00;101972.34;4940675;28;20244;-77
2023/09/02 02:47:11;;;;;;;6.20;3.60;;;;;;;12.38;100.00;102000.28;4939844;29;20439;-77
2023/09/02 02:49:37;;;;;;;7.27;4.07;;;;;;;12.49;100.00;102001.72;4941225;29;20573;-78
2023/09/02 02:52:02;;;;;;;7.07;3.70;;;;;;;11.73;100.00;101894.94;4939211;29;20191;-76
2023/09/02 02:54:28;;;;;;;4.60;3.50;;;;;;;12.43;100.00;102032.88;4941856;28;20811;-77
2023/09/02 02:56:54;;;;;;;4.87;3.67;;;;;;;12.03;100.00;101980.25;4944011;29;20187;-77
2023/09/02 02:59:19;;;;;;;6.47;3.90;;;;;;;12.30;100.00;102022.75;4943684;29;20264;-77
2023/09/02 03:01:45;;;;;;;4.60;3.43;;;;;;;12.41;100.00;102037.59;4944087;29;20459;-77
2023/09/02 03:04:12;;;;;;;5.07;3.60;;;;;;;11.72;100.00;101940.84;4941263;29;20195;-77
2023/09/02 03:06:38;;;;;;;4.03;2.83;;;;;;;12.26;100.00;102034.88;4941637;29;20621;-77
2023/09/02 03:09:03;;;;;;;6.17;3.57;;;;;;;12.25;100.00;102024.31;4940943;29;20490;-77
2023/09/02 03:11:29;;;;;;;4.43;3.70;;;;;;;12.09;100.00;102001.91;4939646;29;20253;-78
2023/09/02 03:13:56;;;;;;;4.97;3.57;;;;;;;12.39;100.00;102051.25;4940548;29;20775;-77
2023/09/02 03:16:21;;;;;;;5.17;3.40;;;;;;;11.65;100.00;101932.63;4943771;29;20534;-78
2023/09/02 03:18:47;;;;;;;4.63;3.40;;;;;;;12.20;100.00;102031.03;4936748;29;20466;-77
2023/09/02 03:21:12;;;;;;;5.43;3.50;;;;;;;11.68;100.00;101947.56;4940628;29;20301;-77
2023/09/02 03:23:38;;;;;;;4.73;3.57;;;;;;;12.21;100.00;102054.25;4939450;29;20191;-77
2023/09/02 03:26:11;;;;;;;4.30;3.10;;;;;;;11.37;100.00;101942.22;4941024;28;20195;-77
2023/09/02 03:28:37;;;;;;;4.50;3.43;;;;;;;12.01;100.00;102036.94;4936737;29;20270;-78
2023/09/02 03:31:07;;;;;;;5.00;3.87;;;;;;;12.16;100.00;102053.13;4952583;28;20898;-77
2023/09/02 03:33:32;;;;;;;4.40;3.20;;;;;;;11.93;100.00;102024.38;4942289;28;20187;-77
2023/09/02 03:35:59;;;;;;;5.33;4.23;;;;;;;12.24;100.00;102058.44;4945275;28;21290;-77
2023/09/02 03:38:25;;;;;;;4.73;3.17;;;;;;;12.34;100.00;102074.34;4941368;29;20198;-78
2023/09/02 03:40:50;;;;;;;5.17;3.73;;;;;;;12.23;100.00;102064.81;4940807;29;20478;-77
2023/09/02 03:43:16;;;;;;;5.17;3.73;;;;;;;12.19;100.00;102066.22;4941976;29;20276;-77
2023/09/02 03:45:41;;;;;;;4.60;3.30;;;;;;;11.99;100.00;102061.28;4952789;28;20187;-77
2023/09/02 03:48:06;;;;;;;6.27;3.50;;;;;;;11.52;100.00;101964.66;4952028;28;20664;-77
2023/09/02 03:50:32;;;;;;;5.43;3.20;;;;;;;11.94;100.00;102058.28;4936217;29;20605;-78
2023/09/02 03:52:57;;;;;;;4.97;2.80;;;;;;;11.73;100.00;102021.28;4934769;29;20187;-77
2023/09/02 03:55:23;;;;;;;4.50;3.13;;;;;;;11.32;100.00;101972.31;4946292;29;20190;-78
2023/09/02 03:57:49;;;;;;;3.93;2.77;;;;;;;11.90;100.00;102072.28;4937859;29;20211;-77
2023/09/02 04:00:18;;;;;;;3.50;2.47;;;;;;;12.02;100.00;102076.25;4943907;29;20493;-77
2023/09/02 04:02:43;;;;;;;4.17;2.80;;;;;;;10.88;100.00;101913.78;4942531;29;20409;-77
2023/09/02 04:05:09;;;;;;;3.87;2.60;;;;;;;12.01;100.00;102042.31;4938966;29;20574;-77
2023/09/02 04:07:34;;;;;;;4.30;2.90;;;;;;;11.33;100.00;101936.38;4942547;29;20274;-77
2023/09/02 04:10:00;;;;;;;3.73;2.50;;;;;;;12.18;100.00;102075.31;4943411;29;20704;-77
2023/09/02 04:12:25;;;;;;;3.73;2.40;;;;;;;12.16;100.00;102074.63;4941428;29;20191;-76
2023/09/02 04:14:50;;;;;;;4.00;2.90;;;;;;;12.19;100.00;102067.03;4952274;28;20195;-77
2023/09/02 04:17:16;;;;;;;3.70;2.50;;;;;;;11.69;100.00;102028.03;4936279;28;21510;-77
2023/09/02 04:19:42;;;;;;;3.63;2.53;;;;;;;11.85;100.00;102066.56;4944599;29;20210;-78
2023/09/02 04:22:07;;;;;;;3.80;2.40;;;;;;;11.55;100.00;101993.84;4933467;29;20450;-78
2023/09/02 04:24:33;;;;;;;3.13;2.10;;;;;;;12.08;100.00;102075.53;4936094;28;20192;-77
2023/09/02 04:26:59;;;;;;;2.97;1.73;;;;;;;11.40;100.00;101960.66;4936360;29;20210;-77
2023/09/02 04:29:24;;;;;;;3.03;1.83;;;;;;;11.52;100.00;101970.03;4939447;29;20179;-78
2023/09/02 04:31:52;;;;;;;3.97;2.40;;;;;;;11.51;100.00;101976.38;4934319;29;20492;-77
2023/09/02 04:34:18;;;;;;;2.87;1.67;;;;;;;10.98;100.00;101918.94;4940266;28;20184;-77
2023/09/02 04:36:43;;;;;;;3.67;2.20;;;;;;;11.96;100.00;102076.97;4940949;29;20510;-78
2023/09/02 04:39:09;;;;;;;4.10;2.07;;;;;;;11.84;100.00;102081.88;4937337;29;20475;-77
2023/09/02 04:41:36;;;;;;;4.00;2.43;;;;;;;12.06;100.00;102093.69;4942323;29;20269;-78
2023/09/02 04:44:02;;;;;;;3.87;2.70;;;;;;;12.07;100.00;102106.13;4935431;29;21336;-77
2023/09/02 04:46:27;;;;;;;4.73;2.90;;;;;;;12.09;100.00;102105.94;4937752;29;20491;-77
2023/09/02 04:48:53;;;;;;;4.83;3.20;;;;;;;12.05;100.00;102102.78;4940556;29;20187;-77
2023/09/02 04:51:19;;;;;;;4.23;3.07;;;;;;;11.73;100.00;102050.84;4942939;29;20208;-77
2023/09/02 04:53:44;;;;;;;5.60;3.63;;;;;;;11.50;100.00;102021.22;4938194;29;20605;-77
2023/09/02 04:56:10;;;;;;;5.17;3.90;;;;;;;11.60;100.00;102061.34;4940253;29;20450;-78
2023/09/02 04:58:35;;;;;;;5.57;4.20;;;;;;;11.41;100.00;102008.88;4939852;29;20207;-76
2023/09/02 05:01:11;;;;;;;6.20;4.33;;;;;;;12.30;100.00;102130.38;4937288;29;20232;-77
2023/09/02 05:03:37;;;;;;;4.90;3.53;;;;;;;12.17;100.00;102130.09;4939779;28;20203;-77
2023/09/02 05:06:05;;;;;;;5.30;4.40;;;;;;;11.35;100.00;102025.69;4936700;29;20454;-77
2023/09/02 05:08:34;;;;;;;8.30;5.03;;;;;;;11.68;100.00;102076.56;4936081;29;20652;-77
2023/09/02 05:10:59;;;;;;;8.13;4.97;;;;;;;12.17;100.00;102138.16;4936909;28;20968;-78
2023/09/02 05:13:24;;;;;;;9.43;5.33;;;;;;;12.19;100.00;102122.69;4942006;28;20450;-77
2023/09/02 05:15:50;;;;;;;6.03;4.83;;;;;;;11.52;100.00;102011.16;4935484;29;20673;-77
2023/09/02 05:18:16;;;;;;;6.20;4.70;;;;;;;12.02;100.00;102110.38;4938925;29;20194;-78
2023/09/02 05:20:41;;;;;;;6.93;5.13;;;;;;;11.61;100.00;102024.56;4941803;28;20219;-77
2023/09/02 05:23:07;;;;;;;5.43;4.40;;;;;;;12.00;100.00;102091.72;4940349;29;20539;-77
2023/09/02 05:25:32;;;;;;;6.37;5.10;;;;;;;12.13;100.00;102101.91;4945159;29;20194;-77
2023/09/02 05:27:57;;;;;;;8.10;4.97;;;;;;;12.11;100.00;102109.28;4940091;29;20211;-77
2023/09/02 05:30:23;;;;;;;7.53;5.60;;;;;;;12.19;100.00;102131.59;4939366;29;20207;-76
2023/09/02 05:32:48;;;;;;;7.90;5.70;;;;;;;11.72;100.00;102034.91;4946323;29;20231;-77
2023/09/02 05:35:14;;;;;;;6.90;5.03;;;;;;;12.48;100.00;102145.38;4945825;29;20199;-77
2023/09/02 05:37:39;;;;;;;6.87;5.43;;;;;;;11.71;100.00;102031.34;4937390;29;20222;-77
2023/09/02 05:40:05;;;;;;;7.10;5.53;;;;;;;12.49;100.00;102149.72;4940793;29;20596;-78
2023/09/02 05:42:31;;;;;;;8.40;5.23;;;;;;;12.31;100.00;102134.72;4943342;29;20602;-77
2023/09/02 05:44:56;;;;;;;6.33;4.93;;;;;;;12.46;100.00;102137.47;4943714;29;20564;-76
2023/09/02 05:47:21;;;;;;;7.30;5.70;;;;;;;12.48;100.00;102124.69;4945755;28;20182;-77
2023/09/02 05:49:47;;;;;;;7.20;5.23;;;;;;;11.65;100.00;102004.38;4942356;29;20282;-77
2023/09/02 05:52:12;;;;;;;9.07;6.17;;;;;;;12.47;100.00;102152.63;4942032;29;20199;-77
2023/09/02 05:54:38;;;;;;;8.43;6.10;;;;;;;12.39;100.00;102121.22;4951870;28;20191;-77
2023/09/02 05:57:03;;;;;;;10.93;5.27;;;;;;;12.74;100.00;102159.28;4941702;29;20202;-76
2023/09/02 05:59:29;;;;;;;8.03;5.53;;;;;;;12.54;100.00;102121.25;4941199;29;20617;-77
2023/09/02 06:01:56;;;;;;;7.13;5.17;;;;;;;12.69;100.00;102155.47;4941173;29;20253;-76
2023/09/02 06:04:22;;;;;;;6.77;5.07;;;;;;;12.84;100.00;102164.41;4939910;29;20566;-77
2023/09/02 06:06:47;;;;;;;6.43;5.63;;;;;;;12.87;100.00;102167.59;4938051;29;20450;-77
2023/09/02 06:09:12;;;;;;;8.07;5.40;;;;;;;12.91;100.00;102168.06;4945871;29;21052;-77
2023/09/02 06:11:38;;;;;;;7.57;4.53;;;;;;;12.83;100.00;102133.97;4946146;28;20259;-78
2023/09/02 06:14:03;;;;;;;8.33;5.47;;;;;;;12.94;100.00;102158.81;4939665;29;20222;-78
2023/09/02 06:16:29;;;;;;;6.13;4.90;;;;;;;12.34;100.00;102069.78;4940093;29;20274;-78
2023/09/02 06:18:54;;;;;;;6.53;5.20;;;;;;;13.14;100.00;102181.50;4939053;29;20203;-78
2023/09/02 06:21:19;;;;;;;6.43;5.13;;;;;;;13.32;100.00;102208.13;4953513;28;20207;-78
2023/09/02 06:23:45;;;;;;;8.13;5.53;;;;;;;13.16;100.00;102179.44;4939697;29;20594;-78
2023/09/02 06:26:12;;;;;;;7.77;5.40;;;;;;;13.17;100.00;102151.50;4939490;29;20191;-78
2023/09/02 06:28:37;;;;;;;8.50;6.20;;;;;;;13.55;100.00;102195.41;4937832;29;20238;-78
2023/09/02 06:31:10;;;;;;;6.60;5.10;;;;;;;13.54;100.00;102204.53;4938934;29;20466;-78
2023/09/02 06:33:35;;;;;;;7.53;5.50;;;;;;;13.59;100.00;102193.19;4945567;29;20972;-79
2023/09/02 06:36:16;;;;;;;6.90;5.47;;;;;;;13.41;100.00;102165.75;4941378;29;20446;-79
2023/09/02 06:38:42;;;;;;;9.23;5.27;;;;;;;12.91;100.00;102063.06;4946412;29;20207;-79
2023/09/02 06:41:15;;;;;;;7.67;5.53;;;;;;;13.83;100.00;102210.97;4939939;29;20833;-78
2023/09/02 06:43:41;;;;;;;8.03;5.50;;;;;;;13.89;100.00;102212.91;4938882;29;20199;-78
2023/09/02 06:46:20;;;;;;;6.80;4.90;;;;;;;13.91;100.00;102199.22;4943037;29;20524;-78
2023/09/02 06:48:47;;;;;;;6.97;5.60;;;;;;;14.11;100.00;102221.88;4945357;28;20453;-79
2023/09/02 06:51:13;;;;;;;6.00;4.83;;;;;;;13.89;100.00;102185.94;4944114;29;20477;-78
2023/09/02 06:53:40;;;;;;;6.30;4.77;;;;;;;13.98;100.00;102192.06;4939313;29;20800;-79
2023/09/02 06:56:09;;;;;;;6.60;4.90;;;;;;;14.31;100.00;102230.22;4940623;28;20474;-78
2023/09/02 06:58:37;;;;;;;6.20;4.60;;;;;;;14.12;100.00;102210.09;4942333;29;20575;-78
2023/09/02 07:01:03;;;;;;;5.77;3.80;;;;;;;14.28;100.00;102222.50;4951407;28;20517;-78
2023/09/02 07:03:28;;;;;;;6.20;4.17;;;;;;;14.25;100.00;102223.72;4936408;28;20443;-78
2023/09/02 07:05:54;;;;;;;5.70;4.40;;;;;;;14.04;100.00;102203.97;4954849;28;20202;-79
2023/09/02 07:08:19;;;;;;;8.37;4.20;;;;;;;14.43;100.00;102228.69;4937541;28;20184;-78
2023/09/02 07:10:45;;;;;;;5.30;4.10;;;;;;;14.41;100.00;102229.94;4941634;29;20608;-78
2023/09/02 07:13:10;;;;;;;4.70;3.53;;;;;;;14.59;100.00;102256.53;4935655;29;20278;-78
2023/09/02 07:15:36;;;;;;;7.00;4.63;;;;;;;14.44;100.00;102227.69;4940379;29;20306;-77
2023/09/02 07:18:02;;;;;;;7.23;3.70;;;;;;;14.34;100.00;102220.91;4940095;29;20223;-78
2023/09/02 07:20:27;;;;;;;6.70;4.37;;;;;;;14.41;100.00;102241.56;4935964;29;20734;-77
2023/09/02 07:22:53;;;;;;;6.87;4.23;;;;;;;14.51;100.00;102216.94;4936056;29;20458;-78
2023/09/02 07:25:18;;;;;;;4.37;3.37;;;;;;;14.72;100.00;102236.94;4951026;28;20195;-78
2023/09/02 07:27:43;;;;;;;5.47;3.40;;;;;;;14.95;100.00;102255.66;4939145;29;20708;-78
2023/09/02 07:30:09;;;;;;;4.17;3.00;;;;;;;14.97;100.00;102229.28;4936544;28;20661;-78
2023/09/02 07:32:35;;;;;;;5.77;3.10;;;;;;;15.09;100.00;102249.34;4938262;29;20201;-78
2023/09/02 07:35:00;;;;;;;4.60;2.50;;;;;;;14.86;100.00;102188.25;4946393;29;20270;-78
2023/09/02 07:37:26;;;;;;;4.07;2.77;;;;;;;15.22;100.00;102238.66;4943940;29;20234;-79
2023/09/02 07:39:51;;;;;;;5.07;2.80;;;;;;;14.95;100.00;102167.31;4948887;28;20218;-79
2023/09/02 07:42:17;;;;;;;3.63;2.30;;;;;;;14.96;100.00;102160.91;4937496;29;20197;-79
2023/09/02 07:44:42;;;;;;;4.17;2.53;;;;;;;15.44;100.00;102231.31;4936805;28;20186;-79
2023/09/02 07:47:08;;;;;;;3.37;2.23;;;;;;;14.67;100.00;102103.31;4943361;28;22617;-79
2023/09/02 07:49:33;;;;;;;3.63;2.17;;;;;;;12.71;100.00;101747.78;4944147;29;20560;-79
2023/09/02 07:51:58;;;;;;;4.10;2.30;;;;;;;14.66;100.00;102084.59;4948964;28;20729;-79
2023/09/02 07:54:24;;;;;;;3.57;2.37;;;;;;;14.69;100.00;102074.28;4943626;29;20193;-79
2023/09/02 07:56:49;;;;;;;4.20;2.67;;;;;;;14.60;100.00;102061.91;4938881;28;20198;-78
2023/09/02 07:59:15;;;;;;;3.67;2.13;;;;;;;14.94;100.00;102100.00;4939546;29;20212;-78
2023/09/02 08:01:40;;;;;;;4.07;2.50;;;;;;;15.82;100.00;102236.38;4941238;29;20207;-77
2023/09/02 08:04:06;;;;;;;3.67;2.23;;;;;;;15.17;100.00;102115.94;4939825;29;20210;-78
2023/09/02 08:06:31;;;;;;;7.07;3.10;;;;;;;14.79;100.00;102054.19;4940367;29;20187;-78
2023/09/02 08:08:57;;;;;;;3.80;2.20;;;;;;;13.87;100.00;101894.00;4937940;29;20183;-77
2023/09/02 08:11:22;;;;;;;4.67;2.20;;;;;;;15.13;100.00;102089.31;4935338;28;20719;-78
2023/09/02 08:13:48;;;;;;;4.10;2.27;;;;;;;14.58;100.00;101990.25;4941902;29;20557;-77
2023/09/02 08:16:13;;;;;;;4.23;2.60;;;;;;;15.48;100.00;102107.41;4939685;29;20204;-78
2023/09/02 08:18:39;;;;;;;5.33;2.73;;;;;;;14.76;100.00;101989.75;4938860;29;20194;-78
2023/09/02 08:21:11;;;;;;;4.80;2.03;;;;;;;15.69;100.00;102149.75;4939626;29;20704;-78
2023/09/02 08:23:39;;;;;;;4.20;2.23;;;;;;;16.39;100.00;102216.22;4938114;29;20278;-78
2023/09/02 08:26:09;;;;;;;5.07;2.70;;;;;;;16.02;100.00;102155.28;4933159;29;20449;-78
2023/09/02 08:28:34;;;;;;;5.17;2.20;;;;;;;16.12;100.00;102172.00;4938834;29;20921;-78
2023/09/02 08:31:00;;;;;;;6.03;2.20;;;;;;;15.60;100.00;102093.09;4951271;28;20456;-77
2023/09/02 08:33:25;;;;;;;5.50;3.57;;;;;;;16.41;100.00;102192.50;4940171;29;20234;-77
2023/09/02 08:35:50;;;;;;;3.83;2.37;;;;;;;16.53;100.00;102187.31;4939062;29;20195;-78
2023/09/02 08:38:16;;;;;;;5.10;1.90;;;;;;;16.01;100.00;102115.75;4935269;29;20194;-78
2023/09/02 08:40:46;;;;;;;4.33;2.30;;;;;;;16.58;100.00;102200.25;4941752;29;20222;-78
2023/09/02 08:43:13;;;;;;;3.27;2.07;;;;;;;16.26;100.00;102143.09;4939254;29;20211;-77
2023/09/02 08:45:43;;;;;;;3.97;2.57;;;;;;;16.47;100.00;102161.88;4939705;29;20475;-77
2023/09/02 08:48:16;;;;;;;3.50;2.07;;;;;;;16.72;100.00;102204.59;4949232;28;20447;-77
2023/09/02 08:50:42;;;;;;;5.00;2.23;;;;;;;16.68;100.00;102179.00;4939414;28;20973;-78
2023/09/02 08:53:07;;;;;;;3.60;2.30;;;;;;;16.08;100.00;102078.69;4949215;29;20447;-78
2023/09/02 08:55:34;;;;;;;4.00;2.50;;;;;;;16.31;100.00;102096.44;4946644;29;20200;-78
2023/09/02 08:58:01;;;;;;;4.10;2.30;;;;;;;17.01;100.00;102195.31;4943439;29;20715;-78
2023/09/02 09:00:26;;;;;;;3.40;1.73;;;;;;;16.25;100.00;102076.44;4937743;29;20522;-78
2023/09/02 09:02:53;;;;;;;5.20;2.47;;;;;;;16.94;100.00;102179.03;4939080;28;20478;-78
2023/09/02 09:05:18;;;;;;;8.90;3.13;;;;;;;16.66;100.00;102113.34;4942429;29;20202;-78
2023/09/02 09:07:45;;;;;;;5.03;2.33;;;;;;;16.76;100.00;102100.25;4942224;29;20446;-78
2023/09/02 09:10:14;;;;;;;4.67;2.13;;;;;;;17.19;100.00;102161.31;4943423;29;20234;-78
2023/09/02 09:12:40;;;;;;;4.30;1.80;;;;;;;16.68;100.00;102068.75;4941298;29;20505;-78
2023/09/02 09:15:08;;;;;;;5.30;2.97;;;;;;;16.62;100.00;102066.88;4937062;28;20985;-78
2023/09/02 09:17:34;;;;;;;3.90;2.23;;;;;;;17.25;100.00;102160.47;4942765;28;20533;-78
2023/09/02 09:20:01;;;;;;;3.63;1.90;;;;;;;17.43;100.00;102176.91;4944221;28;20569;-79
2023/09/02 09:22:27;;;;;;;4.80;2.37;;;;;;;16.97;100.00;102092.94;4942138;28;20606;-78
2023/09/02 09:24:52;;;;;;;6.57;2.37;;;;;;;17.51;100.00;102167.72;4942509;29;20510;-78
2023/09/02 09:27:18;;;;;;;6.00;2.20;;;;;;;17.41;100.00;102160.00;4955258;28;20700;-78
2023/09/02 09:29:43;;;;;;;6.50;2.80;;;;;;;17.00;100.00;102081.66;4941197;29;20668;-78
2023/09/02 09:32:14;;;;;;;5.50;3.20;;;;;;;17.79;100.00;102187.28;4943111;29;20230;-78
2023/09/02 09:34:42;;;;;;;5.53;2.70;;;;;;;17.17;100.00;102101.84;4942735;29;20231;-78
2023/09/02 09:37:09;;;;;;;7.00;3.37;;;;;;;17.96;100.00;102176.75;4939636;29;20462;-77
2023/09/02 09:39:40;;;;;;;4.90;2.50;;;;;;;18.13;100.00;102176.25;4941969;28;21073;-78
2023/09/02 09:42:06;;;;;;;6.43;2.70;;;;;;;18.20;100.00;102141.78;4945108;28;20447;-78
2023/09/02 09:44:31;;;;;;;6.47;2.80;;;;;;;18.23;100.00;102150.31;4944099;29;20443;-81
2023/09/02 09:46:57;;;;;;;4.87;2.73;;;;;;;18.17;100.00;102123.22;4941666;28;20187;-78
2023/09/02 09:49:28;;;;;;;5.03;2.80;;;;;;;18.51;100.00;102168.09;4940911;29;20191;-78
2023/09/02 09:52:00;;;;;;;5.53;3.50;;;;;;;18.57;100.00;102142.75;4939599;28;20223;-78
2023/09/02 09:54:34;;;;;;;7.63;3.43;;;;;;;18.56;100.00;102141.09;4940639;29;20985;-79
2023/09/02 09:57:00;;;;;;;4.40;2.23;;;;;;;18.68;100.00;102125.75;4942088;28;20443;-78
2023/09/02 09:59:25;;;;;;;4.77;2.30;;;;;;;18.70;100.00;102112.78;4947151;29;20843;-78
2023/09/02 10:01:50;;;;;;;5.43;2.70;;;;;;;18.52;100.00;102091.81;4939149;28;20696;-77
2023/09/02 10:04:16;;;;;;;3.80;2.53;;;;;;;18.58;100.00;102141.72;4939808;29;20203;-78
2023/09/02 10:06:45;;;;;;;7.50;3.40;;;;;;;18.83;100.00;102128.16;4937970;28;20187;-76
2023/09/02 10:09:10;;;;;;;5.10;2.40;;;;;;;18.00;100.00;101979.00;4936139;28;20207;-75
2023/09/02 10:11:36;;;;;;;4.00;2.37;;;;;;;18.25;100.00;102020.59;4946438;29;20464;-75
2023/09/02 10:14:04;;;;;;;5.27;2.30;;;;;;;18.29;100.00;102016.34;4940107;29;20183;-76
2023/09/02 10:16:30;;;;;;;5.47;2.80;;;;;;;18.71;100.00;102103.56;4938750;29;20446;-77
2023/09/02 10:18:58;;;;;;;6.33;3.53;;;;;;;18.64;100.00;102093.81;4941361;29;20450;-76
2023/09/02 10:21:28;;;;;;;6.70;2.97;;;;;;;18.56;100.00;102073.19;4936316;28;20482;-77
2023/09/02 10:23:57;;;;;;;4.70;2.20;;;;;;;18.63;100.00;102111.16;4941633;29;20447;-77
2023/09/02 10:26:40;;;;;;;3.73;2.07;;;;;;;18.22;100.00;102075.31;4940190;29;20479;-77
2023/09/02 10:29:12;;;;;;;4.30;1.80;;;;;;;17.82;100.00;102001.47;4940722;29;20439;-76
2023/09/02 10:31:45;;;;;;;3.97;1.77;;;;;;;18.62;100.00;102126.63;4951400;28;20812;-77
2023/09/02 10:34:18;;;;;;;3.87;1.93;;;;;;;18.65;100.00;102123.47;4932476;28;20440;-76
2023/09/02 10:36:57;;;;;;;5.17;2.07;;;;;;;18.18;100.00;102016.25;4942761;29;21120;-77
2023/09/02 10:39:43;;;;;;;4.57;2.77;;;;;;;18.26;100.00;102030.38;4939987;28;20944;-78
2023/09/02 10:42:09;;;;;;;6.63;3.00;;;;;;;18.51;100.00;102102.88;4939949;29;20526;-77
2023/09/02 10:44:35;;;;;;;4.23;1.90;;;;;;;18.60;100.00;102120.59;4941963;29;20451;-77
2023/09/02 10:47:02;;;;;;;3.30;1.77;;;;;;;18.53;100.00;102123.34;4954159;28;20200;-77
2023/09/02 10:49:28;;;;;;;3.90;1.83;;;;;;;18.52;100.00;102115.44;4950888;28;20444;-77
2023/09/02 10:51:54;;;;;;;3.50;1.60;;;;;;;18.79;100.00;102112.53;4936946;28;20467;-77
2023/09/02 10:54:20;;;;;;;3.50;2.13;;;;;;;18.45;100.00;101995.09;4942486;28;20470;-77
2023/09/02 10:56:45;;;;;;;5.00;2.20;;;;;;;19.41;100.00;102078.84;4938215;29;20482;-78
2023/09/02 10:59:27;;;;;;;5.13;2.00;;;;;;;19.43;100.00;102052.22;4950375;28;20222;-77
2023/09/02 11:01:53;;;;;;;3.70;1.60;;;;;;;19.73;100.00;102067.78;4940551;28;20210;-78
2023/09/02 11:04:40;;;;;;;5.97;2.50;;;;;;;19.79;100.00;102075.03;4941012;29;20451;-76
2023/09/02 11:07:18;;;;;;;5.50;2.90;;;;;;;19.68;100.00;102073.09;4937630;29;20194;-77
2023/09/02 11:09:52;;;;;;;4.37;1.90;;;;;;;18.70;100.00;101970.63;4940334;29;20438;-79
2023/09/02 11:12:17;;;;;;;3.80;1.63;;;;;;;18.91;100.00;102042.78;4935853;29;20453;-78
2023/09/02 11:15:08;;;;;;;2.63;1.43;;;;;;;18.58;100.00;102049.34;4940113;28;20435;-78
2023/09/02 11:17:38;;;;;;;3.03;1.60;;;;;;;18.43;100.00;102048.84;4937528;29;20270;-78